Time;durP1;ratioP1;P1;durP2;ratioP2;P2;SDS_P1;SDS_P2;PMS_P1;PMS_P2;Temp;Humidity;BMP_temperature;BMP_pressure;BME280_temperature;BME280_humidity;BME280_pressure;Samples;Min_cycle;Max_cycle;Signal;HPM_P1;HPM_P2
2022/06/10 00:00:05;;;;;;;4.30;3.27;;;;;;;;;;1730300;81;21854;-72
2022/06/10 00:02:33;;;;;;;4.72;3.30;;;;;;;;;;1729704;82;21061;-72
2022/06/10 00:04:59;;;;;;;5.50;3.35;;;;;;;;;;1729591;81;21025;-72
2022/06/10 00:07:27;;;;;;;5.00;3.15;;;;;;;;;;1750975;82;21036;-72
2022/06/10 00:09:53;;;;;;;5.20;3.40;;;;;;;;;;1751130;81;21012;-72
2022/06/10 00:12:19;;;;;;;3.75;3.10;;;;;;;;;;1744258;81;21043;-72
2022/06/10 00:14:45;;;;;;;5.97;3.47;;;;;;;;;;1743354;81;21511;-72
2022/06/10 00:17:13;;;;;;;5.95;3.70;;;;;;;;;;1751584;82;21036;-72
2022/06/10 00:19:41;;;;;;;3.98;3.33;;;;;;;;;;1748625;82;21063;-72
2022/06/10 00:22:07;;;;;;;6.70;3.40;;;;;;;;;;1754681;81;21008;-72
2022/06/10 00:24:33;;;;;;;3.87;3.15;;;;;;;;;;1743575;81;21088;-72
2022/06/10 00:26:59;;;;;;;4.00;3.15;;;;;;;;;;1753545;81;20992;-72
2022/06/10 00:29:25;;;;;;;5.58;3.02;;;;;;;;;;1757009;81;21048;-72
2022/06/10 00:31:52;;;;;;;5.78;3.60;;;;;;;;;;1729778;83;21041;-72
2022/06/10 00:34:19;;;;;;;4.22;3.15;;;;;;;;;;1727035;81;21012;-72
2022/06/10 00:36:45;;;;;;;4.53;3.17;;;;;;;;;;1729877;81;20997;-72
2022/06/10 00:39:11;;;;;;;5.78;3.58;;;;;;;;;;1725996;83;21028;-72
2022/06/10 00:41:42;;;;;;;4.62;3.22;;;;;;;;;;1729072;83;21075;-72
2022/06/10 00:44:26;;;;;;;4.45;3.42;;;;;;;;;;1731171;81;21063;-72
2022/06/10 00:46:53;;;;;;;3.65;3.10;;;;;;;;;;1696179;84;21529;-72
2022/06/10 00:49:19;;;;;;;5.65;3.30;;;;;;;;;;1713291;82;21116;-72
2022/06/10 00:51:48;;;;;;;4.72;3.75;;;;;;;;;;1716581;83;21116;-72
2022/06/10 00:54:16;;;;;;;4.08;3.40;;;;;;;;;;1726691;82;21413;-72
2022/06/10 00:56:44;;;;;;;3.67;3.15;;;;;;;;;;1719708;82;22149;-72
2022/06/10 00:59:13;;;;;;;5.45;3.42;;;;;;;;;;1710089;84;21017;-72
2022/06/10 01:04:30;;;;;;;5.00;3.00;;;;;;;;;;1729616;80;21103;-72
2022/06/10 01:06:56;;;;;;;4.83;2.95;;;;;;;;;;1726020;83;21001;-72
2022/06/10 01:09:22;;;;;;;6.28;3.60;;;;;;;;;;1726012;83;21031;-71
2022/06/10 01:11:55;;;;;;;10.20;3.77;;;;;;;;;;1693754;82;21032;-71
2022/06/10 01:14:41;;;;;;;6.22;3.22;;;;;;;;;;1733650;81;21516;-71
2022/06/10 01:17:12;;;;;;;4.65;3.17;;;;;;;;;;1696878;84;21067;-72
2022/06/10 01:19:41;;;;;;;3.80;3.10;;;;;;;;;;1697244;84;21067;-72
2022/06/10 01:22:18;;;;;;;3.80;3.02;;;;;;;;;;1725444;82;21084;-72
2022/06/10 01:24:49;;;;;;;5.22;3.60;;;;;;;;;;1737053;81;20968;-73
2022/06/10 01:27:48;;;;;;;4.80;3.30;;;;;;;;;;1717476;83;21638;-71
2022/06/10 01:30:32;;;;;;;14.55;3.37;;;;;;;;;;1718073;83;21091;-71
2022/06/10 01:33:17;;;;;;;6.47;3.33;;;;;;;;;;1729229;82;21017;-71
2022/06/10 01:35:48;;;;;;;4.67;3.50;;;;;;;;;;1679074;84;21180;-72
2022/06/10 01:38:16;;;;;;;6.55;3.40;;;;;;;;;;1736204;82;20992;-71
2022/06/10 01:41:00;;;;;;;5.25;3.15;;;;;;;;;;1736187;83;21071;-71
2022/06/10 01:43:37;;;;;;;4.30;3.40;;;;;;;;;;1726134;81;21075;-71
2022/06/10 01:46:12;;;;;;;5.20;3.30;;;;;;;;;;1740886;81;20989;-72
2022/06/10 01:48:45;;;;;;;5.35;3.27;;;;;;;;;;1734916;83;20999;-71
2022/06/10 01:51:19;;;;;;;4.83;3.20;;;;;;;;;;1734911;80;21005;-71
2022/06/10 01:53:53;;;;;;;5.35;3.02;;;;;;;;;;1755465;81;21100;-72
2022/06/10 01:56:24;;;;;;;4.22;3.33;;;;;;;;;;1740538;81;21024;-71
2022/06/10 01:58:58;;;;;;;5.78;3.17;;;;;;;;;;1732619;81;21103;-71
2022/06/10 02:01:29;;;;;;;5.42;3.30;;;;;;;;;;1732816;83;21056;-71
2022/06/10 02:03:56;;;;;;;5.15;3.55;;;;;;;;;;1748995;81;21630;-71
2022/06/10 02:06:25;;;;;;;6.47;3.67;;;;;;;;;;1739622;80;21053;-71
2022/06/10 02:08:53;;;;;;;6.03;4.17;;;;;;;;;;1726656;83;21080;-71
2022/06/10 02:11:20;;;;;;;8.20;4.15;;;;;;;;;;1731137;81;21040;-71
2022/06/10 02:13:48;;;;;;;6.85;3.60;;;;;;;;;;1758536;81;21016;-71
2022/06/10 02:16:16;;;;;;;9.15;3.80;;;;;;;;;;1779814;80;20993;-71
2022/06/10 02:18:56;;;;;;;4.70;3.08;;;;;;;;;;1787482;80;21056;-71
2022/06/10 02:21:30;;;;;;;6.33;3.08;;;;;;;;;;1772957;80;21127;-71
2022/06/10 02:23:58;;;;;;;4.35;3.42;;;;;;;;;;1754005;81;21053;-72
2022/06/10 02:26:24;;;;;;;5.65;3.10;;;;;;;;;;1740344;80;21056;-72
2022/06/10 02:28:51;;;;;;;7.22;3.15;;;;;;;;;;1727355;83;20989;-71
2022/06/10 02:31:19;;;;;;;5.47;3.37;;;;;;;;;;1745269;81;21040;-72
2022/06/10 02:33:45;;;;;;;5.67;3.08;;;;;;;;;;1758650;81;21064;-71
2022/06/10 02:36:19;;;;;;;4.20;3.30;;;;;;;;;;1764264;80;21027;-72
2022/06/10 02:38:48;;;;;;;4.17;3.20;;;;;;;;;;1762423;81;21063;-72
2022/06/10 02:41:29;;;;;;;4.78;3.40;;;;;;;;;;1761550;81;21091;-72
2022/06/10 02:43:59;;;;;;;6.40;3.50;;;;;;;;;;1761908;81;21016;-72
2022/06/10 02:46:44;;;;;;;4.53;2.90;;;;;;;;;;1762746;80;21027;-72
2022/06/10 02:49:15;;;;;;;5.97;3.12;;;;;;;;;;1757926;81;20997;-72
2022/06/10 02:51:41;;;;;;;3.60;3.10;;;;;;;;;;1757355;82;21068;-72
2022/06/10 02:54:09;;;;;;;5.85;3.25;;;;;;;;;;1759649;81;22036;-72
2022/06/10 02:56:35;;;;;;;4.03;3.00;;;;;;;;;;1761486;80;21087;-72
2022/06/10 03:01:59;;;;;;;4.53;3.17;;;;;;;;;;1695343;81;21075;-71
2022/06/10 03:04:43;;;;;;;3.30;3.00;;;;;;;;;;1759190;81;21143;-72
2022/06/10 03:07:12;;;;;;;6.60;3.50;;;;;;;;;;1780963;79;21075;-71
2022/06/10 03:09:56;;;;;;;4.58;3.15;;;;;;;;;;1730500;82;21111;-72
2022/06/10 03:12:22;;;;;;;8.73;2.98;;;;;;;;;;1724366;83;21646;-72
2022/06/10 03:15:05;;;;;;;5.53;3.08;;;;;;;;;;1709728;82;21068;-72
2022/06/10 03:17:33;;;;;;;3.83;3.02;;;;;;;;;;1738621;81;21001;-72
2022/06/10 03:20:04;;;;;;;6.17;3.45;;;;;;;;;;1779528;81;20993;-72
2022/06/10 03:22:50;;;;;;;5.37;3.40;;;;;;;;;;1779225;81;21524;-72
2022/06/10 03:25:21;;;;;;;4.30;3.30;;;;;;;;;;1762184;80;21009;-72
2022/06/10 03:27:51;;;;;;;5.03;3.67;;;;;;;;;;1748027;82;21540;-71
2022/06/10 03:30:24;;;;;;;4.05;3.35;;;;;;;;;;1747815;82;21040;-71
2022/06/10 03:32:57;;;;;;;6.05;3.27;;;;;;;;;;1748998;82;21029;-71
2022/06/10 03:35:25;;;;;;;4.30;3.30;;;;;;;;;;1756427;80;21041;-71
2022/06/10 03:37:51;;;;;;;4.15;3.15;;;;;;;;;;1755754;82;21048;-71
2022/06/10 03:40:18;;;;;;;5.37;3.02;;;;;;;;;;1757199;81;21037;-71
2022/06/10 03:42:47;;;;;;;5.17;3.70;;;;;;;;;;1758082;81;21010;-72
2022/06/10 03:45:15;;;;;;;3.98;3.50;;;;;;;;;;1754390;80;21016;-72
2022/06/10 03:47:41;;;;;;;4.00;2.90;;;;;;;;;;1756173;81;21306;-72
2022/06/10 03:50:08;;;;;;;7.17;3.20;;;;;;;;;;1756180;81;21050;-72
2022/06/10 03:52:36;;;;;;;5.10;3.30;;;;;;;;;;1754248;82;21540;-72
2022/06/10 03:55:05;;;;;;;3.58;3.00;;;;;;;;;;1749199;80;21160;-72
2022/06/10 03:57:31;;;;;;;4.15;3.10;;;;;;;;;;1755812;81;21040;-72
2022/06/10 03:59:57;;;;;;;5.75;3.00;;;;;;;;;;1756054;82;21000;-72
2022/06/10 04:02:23;;;;;;;3.62;2.98;;;;;;;;;;1743379;82;21511;-72
2022/06/10 04:04:51;;;;;;;3.35;3.05;;;;;;;;;;1707257;82;21096;-73
2022/06/10 04:07:17;;;;;;;5.95;3.35;;;;;;;;;;1766952;79;21043;-73
2022/06/10 04:09:44;;;;;;;4.92;3.00;;;;;;;;;;1749109;81;21000;-73
2022/06/10 04:12:10;;;;;;;3.58;2.70;;;;;;;;;;1705976;84;21217;-73
2022/06/10 04:14:38;;;;;;;5.10;3.47;;;;;;;;;;1706200;83;21454;-73
2022/06/10 04:17:04;;;;;;;7.15;3.45;;;;;;;;;;1773501;79;21500;-73
2022/06/10 04:19:30;;;;;;;8.13;3.87;;;;;;;;;;1756294;80;21412;-73
2022/06/10 04:21:56;;;;;;;8.60;3.72;;;;;;;;;;1754102;81;20957;-73
2022/06/10 04:24:22;;;;;;;7.17;3.83;;;;;;;;;;1754565;81;21056;-73
2022/06/10 04:26:49;;;;;;;7.17;4.40;;;;;;;;;;1781439;80;21602;-73
2022/06/10 04:29:15;;;;;;;6.55;3.67;;;;;;;;;;1790260;80;20996;-74
2022/06/10 04:31:41;;;;;;;5.95;3.70;;;;;;;;;;1764654;80;20997;-72
2022/06/10 04:34:08;;;;;;;5.33;3.83;;;;;;;;;;1758749;81;21528;-72
2022/06/10 04:36:34;;;;;;;6.53;3.60;;;;;;;;;;1765411;79;21024;-71
2022/06/10 04:39:00;;;;;;;4.33;3.60;;;;;;;;;;1746449;81;21004;-72
2022/06/10 04:41:26;;;;;;;5.70;5.15;;;;;;;;;;1713070;83;21000;-74
2022/06/10 04:43:52;;;;;;;6.83;4.15;;;;;;;;;;1706052;83;21535;-73
2022/06/10 04:46:23;;;;;;;7.83;3.90;;;;;;;;;;1734774;81;21103;-73
2022/06/10 04:48:49;;;;;;;6.03;3.55;;;;;;;;;;1753759;80;21020;-73
2022/06/10 04:51:15;;;;;;;6.75;3.37;;;;;;;;;;1731930;81;21088;-73
2022/06/10 04:53:41;;;;;;;7.20;4.00;;;;;;;;;;1774890;79;21103;-74
2022/06/10 04:56:07;;;;;;;8.05;3.85;;;;;;;;;;1765329;80;21082;-73
2022/06/10 04:58:34;;;;;;;10.45;3.72;;;;;;;;;;1737438;82;21610;-74
2022/06/10 05:01:03;;;;;;;8.25;3.70;;;;;;;;;;1720264;83;21059;-74
2022/06/10 05:03:29;;;;;;;29.15;6.00;;;;;;;;;;1738717;81;21144;-74
2022/06/10 05:05:55;;;;;;;8.05;4.20;;;;;;;;;;1773337;80;21567;-75
2022/06/10 05:08:21;;;;;;;8.55;3.60;;;;;;;;;;1764996;81;21582;-74
2022/06/10 05:10:47;;;;;;;5.90;3.85;;;;;;;;;;1764967;81;21539;-75
2022/06/10 05:13:16;;;;;;;11.93;3.87;;;;;;;;;;1766085;80;21072;-73
2022/06/10 05:15:43;;;;;;;5.53;3.60;;;;;;;;;;1731684;82;21025;-75
2022/06/10 05:18:11;;;;;;;7.85;4.03;;;;;;;;;;1707276;83;21024;-76
2022/06/10 05:20:38;;;;;;;9.33;4.10;;;;;;;;;;1766652;81;21037;-76
2022/06/10 05:23:06;;;;;;;8.48;4.50;;;;;;;;;;1738140;80;21544;-75
2022/06/10 05:25:34;;;;;;;5.42;3.87;;;;;;;;;;1778684;80;21017;-75
2022/06/10 05:28:01;;;;;;;5.67;3.87;;;;;;;;;;1798629;80;21071;-75
2022/06/10 05:30:30;;;;;;;15.25;4.83;;;;;;;;;;1770760;80;21075;-76
2022/06/10 05:32:58;;;;;;;8.95;4.45;;;;;;;;;;1766302;79;21055;-74
2022/06/10 05:35:24;;;;;;;6.90;4.80;;;;;;;;;;1784642;80;21048;-74
2022/06/10 05:37:51;;;;;;;5.50;4.30;;;;;;;;;;1751064;81;21038;-75
2022/06/10 05:40:17;;;;;;;5.53;4.05;;;;;;;;;;1768382;80;21100;-75
2022/06/10 05:42:43;;;;;;;6.95;4.00;;;;;;;;;;1758202;81;22192;-76
2022/06/10 05:45:12;;;;;;;5.95;4.40;;;;;;;;;;1755384;81;21001;-75
2022/06/10 05:47:39;;;;;;;8.55;4.53;;;;;;;;;;1753739;80;21031;-75
2022/06/10 05:50:06;;;;;;;8.95;5.00;;;;;;;;;;1753417;82;21551;-75
2022/06/10 05:52:32;;;;;;;5.95;4.47;;;;;;;;;;1764638;80;22199;-75
2022/06/10 05:55:00;;;;;;;7.53;4.78;;;;;;;;;;1762794;80;21032;-75
2022/06/10 05:57:27;;;;;;;5.53;4.15;;;;;;;;;;1778138;79;21019;-75
2022/06/10 05:59:52;;;;;;;6.80;4.80;;;;;;;;;;1786941;80;21024;-74
2022/06/10 06:02:21;;;;;;;9.98;4.80;;;;;;;;;;1781789;79;21102;-74
2022/06/10 06:04:48;;;;;;;6.87;4.70;;;;;;;;;;1735804;81;21172;-73
2022/06/10 06:07:19;;;;;;;6.62;4.87;;;;;;;;;;1761502;79;21611;-73
2022/06/10 06:09:45;;;;;;;32.28;5.58;;;;;;;;;;1768045;79;21042;-74
2022/06/10 06:12:12;;;;;;;9.53;4.55;;;;;;;;;;1767099;80;21080;-75
2022/06/10 06:14:38;;;;;;;7.50;4.60;;;;;;;;;;1777624;80;21021;-73
2022/06/10 06:17:05;;;;;;;5.40;4.33;;;;;;;;;;1769153;79;21122;-74
2022/06/10 06:19:32;;;;;;;5.40;4.42;;;;;;;;;;1776429;79;21039;-74
2022/06/10 06:21:58;;;;;;;5.25;4.15;;;;;;;;;;1765464;79;21056;-74
2022/06/10 06:24:25;;;;;;;5.95;4.22;;;;;;;;;;1770725;79;21103;-74
2022/06/10 06:26:51;;;;;;;8.28;4.25;;;;;;;;;;1772549;79;21488;-74
2022/06/10 06:29:18;;;;;;;6.45;4.42;;;;;;;;;;1751339;80;21516;-79
2022/06/10 06:31:45;;;;;;;6.45;4.67;;;;;;;;;;1733252;81;21068;-76
2022/06/10 06:34:11;;;;;;;6.00;4.50;;;;;;;;;;1731302;81;21569;-75
2022/06/10 06:36:38;;;;;;;7.70;4.30;;;;;;;;;;1728364;82;21036;-76
2022/06/10 06:39:05;;;;;;;9.75;4.60;;;;;;;;;;1729727;82;20977;-75
2022/06/10 06:41:31;;;;;;;10.88;5.00;;;;;;;;;;1730950;82;21036;-77
2022/06/10 06:43:57;;;;;;;12.95;5.00;;;;;;;;;;1703173;82;21010;-77
2022/06/10 06:46:23;;;;;;;7.95;4.58;;;;;;;;;;1763038;81;21572;-76
2022/06/10 06:48:50;;;;;;;6.95;4.72;;;;;;;;;;1756021;81;20997;-76
2022/06/10 06:51:16;;;;;;;12.23;4.92;;;;;;;;;;1745103;81;21008;-76
2022/06/10 06:53:42;;;;;;;9.50;5.58;;;;;;;;;;1744512;80;21007;-76
2022/06/10 06:56:08;;;;;;;8.50;5.00;;;;;;;;;;1747333;81;21476;-76
2022/06/10 06:58:34;;;;;;;7.35;4.97;;;;;;;;;;1749276;81;21080;-76
2022/06/10 07:01:01;;;;;;;7.15;5.20;;;;;;;;;;1767983;80;22115;-76
2022/06/10 07:03:27;;;;;;;7.33;5.58;;;;;;;;;;1777598;79;21126;-76
2022/06/10 07:05:53;;;;;;;8.20;5.70;;;;;;;;;;1770473;80;21060;-76
2022/06/10 07:08:21;;;;;;;9.98;5.92;;;;;;;;;;1754770;81;21052;-76
2022/06/10 07:10:47;;;;;;;8.65;5.70;;;;;;;;;;1755485;81;21017;-76
2022/06/10 07:13:14;;;;;;;24.00;15.40;;;;;;;;;;1758477;81;21052;-76
2022/06/10 07:15:42;;;;;;;9.35;8.05;;;;;;;;;;1722113;82;21030;-75
2022/06/10 07:18:08;;;;;;;11.73;6.17;;;;;;;;;;1712565;82;21493;-70
2022/06/10 07:20:34;;;;;;;10.00;6.00;;;;;;;;;;1692417;85;21005;-78
2022/06/10 07:23:00;;;;;;;7.33;5.85;;;;;;;;;;1702811;83;21022;-75
2022/06/10 07:25:27;;;;;;;28.05;7.97;;;;;;;;;;1723764;83;21031;-75
2022/06/10 07:27:53;;;;;;;8.05;5.60;;;;;;;;;;1725512;83;21027;-74
2022/06/10 07:30:19;;;;;;;11.22;6.42;;;;;;;;;;1725536;83;21542;-73
2022/06/10 07:32:46;;;;;;;8.95;5.92;;;;;;;;;;1691033;85;21027;-73
2022/06/10 07:35:11;;;;;;;8.35;5.90;;;;;;;;;;1694967;83;21127;-75
2022/06/10 07:37:38;;;;;;;7.70;5.62;;;;;;;;;;1697840;83;20977;-74
2022/06/10 07:40:04;;;;;;;7.85;5.58;;;;;;;;;;1727190;82;21550;-79
2022/06/10 07:42:34;;;;;;;9.55;5.37;;;;;;;;;;1726935;82;21104;-76
2022/06/10 07:44:59;;;;;;;19.27;6.78;;;;;;;;;;1725875;82;21631;-73
2022/06/10 07:47:25;;;;;;;7.85;5.92;;;;;;;;;;1719427;82;21024;-72
2022/06/10 07:49:51;;;;;;;8.25;5.55;;;;;;;;;;1714052;83;21051;-73
2022/06/10 07:52:17;;;;;;;6.65;5.50;;;;;;;;;;1720689;83;21026;-74
2022/06/10 07:54:43;;;;;;;9.40;5.25;;;;;;;;;;1719128;82;21056;-76
2022/06/10 07:57:11;;;;;;;11.18;5.83;;;;;;;;;;1716759;82;21133;-72
2022/06/10 07:59:40;;;;;;;9.80;6.20;;;;;;;;;;1710084;82;21082;-72
2022/06/10 08:02:05;;;;;;;28.07;7.35;;;;;;;;;;1718968;83;21586;-73
2022/06/10 08:04:31;;;;;;;8.85;6.20;;;;;;;;;;1718853;83;21025;-73
2022/06/10 08:06:57;;;;;;;9.60;6.97;;;;;;;;;;1711403;81;21053;-72
2022/06/10 08:09:23;;;;;;;11.15;6.33;;;;;;;;;;1703290;83;21020;-73
2022/06/10 08:11:51;;;;;;;8.13;5.90;;;;;;;;;;1699406;83;21024;-72
2022/06/10 08:14:17;;;;;;;9.38;6.08;;;;;;;;;;1688926;84;21570;-73
2022/06/10 08:16:45;;;;;;;14.38;8.63;;;;;;;;;;1725341;82;21033;-72
2022/06/10 08:19:13;;;;;;;11.90;8.13;;;;;;;;;;1726344;81;21554;-74
2022/06/10 08:24:24;;;;;;;14.83;10.88;;;;;;;;;;1728661;81;21516;-70
2022/06/10 08:26:51;;;;;;;17.10;8.93;;;;;;;;;;1728748;81;21068;-72
2022/06/10 08:29:18;;;;;;;22.20;9.83;;;;;;;;;;1727477;81;20972;-74
2022/06/10 08:31:45;;;;;;;16.65;9.15;;;;;;;;;;1727417;82;21183;-76
2022/06/10 08:34:11;;;;;;;10.65;8.05;;;;;;;;;;1729659;81;22249;-78
2022/06/10 08:36:39;;;;;;;10.48;8.05;;;;;;;;;;1727232;81;21076;-71
2022/06/10 08:39:05;;;;;;;14.73;9.03;;;;;;;;;;1732139;81;21027;-71
2022/06/10 08:41:42;;;;;;;11.25;8.48;;;;;;;;;;1727690;81;21538;-70
2022/06/10 08:44:12;;;;;;;14.05;8.73;;;;;;;;;;1732055;81;21035;-69
2022/06/10 08:46:53;;;;;;;12.68;9.60;;;;;;;;;;1691301;85;21091;-69
2022/06/10 08:49:22;;;;;;;12.85;8.33;;;;;;;;;;1696261;83;21053;-70
2022/06/10 08:52:03;;;;;;;15.30;9.00;;;;;;;;;;1725545;83;21086;-70
2022/06/10 08:54:34;;;;;;;13.03;8.65;;;;;;;;;;1724236;82;21109;-70
2022/06/10 08:57:02;;;;;;;9.83;8.20;;;;;;;;;;1732825;81;21065;-70
2022/06/10 08:59:28;;;;;;;48.25;10.35;;;;;;;;;;1725470;82;21030;-70
2022/06/10 09:02:00;;;;;;;10.43;7.28;;;;;;;;;;1739439;80;21629;-70
2022/06/10 09:04:27;;;;;;;12.98;8.33;;;;;;;;;;1733365;81;21016;-69
2022/06/10 09:06:54;;;;;;;10.68;8.48;;;;;;;;;;1727286;82;21113;-70
2022/06/10 09:09:20;;;;;;;14.10;9.33;;;;;;;;;;1730842;81;20989;-72
2022/06/10 09:11:56;;;;;;;13.88;8.65;;;;;;;;;;1728707;82;20990;-71
2022/06/10 09:14:24;;;;;;;13.28;9.80;;;;;;;;;;1726505;83;21100;-71
2022/06/10 09:17:11;;;;;;;11.73;8.43;;;;;;;;;;1728474;81;21052;-72
2022/06/10 09:19:47;;;;;;;10.63;8.48;;;;;;;;;;1731519;81;21049;-80
2022/06/10 09:22:15;;;;;;;17.07;10.72;;;;;;;;;;1732144;81;21022;-81
2022/06/10 09:24:46;;;;;;;38.05;11.45;;;;;;;;;;1713976;82;21044;-77
2022/06/10 09:27:31;;;;;;;12.13;8.03;;;;;;;;;;1776252;79;21021;-78
2022/06/10 09:29:57;;;;;;;8.43;6.90;;;;;;;;;;1776507;79;21509;-76
2022/06/10 09:32:28;;;;;;;9.93;6.87;;;;;;;;;;1765113;79;21032;-73
2022/06/10 09:35:02;;;;;;;10.10;6.97;;;;;;;;;;1770833;79;21119;-76
2022/06/10 09:37:43;;;;;;;10.48;7.05;;;;;;;;;;1763881;80;21048;-79
2022/06/10 09:43:00;;;;;;;9.80;6.97;;;;;;;;;;1766371;79;21634;-76
2022/06/10 09:45:31;;;;;;;12.20;6.80;;;;;;;;;;1735631;81;21036;-80
2022/06/10 09:48:17;;;;;;;9.80;6.78;;;;;;;;;;1768737;79;21060;-73
2022/06/10 09:50:45;;;;;;;11.25;7.67;;;;;;;;;;1770077;79;21042;-72
2022/06/10 09:53:16;;;;;;;12.30;7.95;;;;;;;;;;1773945;80;21028;-74
2022/06/10 09:55:57;;;;;;;10.23;6.97;;;;;;;;;;1766967;80;21063;-74
2022/06/10 09:58:27;;;;;;;9.10;6.92;;;;;;;;;;1774647;80;20976;-73
2022/06/10 10:00:58;;;;;;;8.85;7.55;;;;;;;;;;1766350;81;21043;-72
2022/06/10 10:04:48;;;;;;;10.03;7.67;;;;;;;;;;1821040;78;22621;-71
2022/06/10 10:07:32;;;;;;;12.37;7.75;;;;;;;;;;1784204;80;21075;-71
2022/06/10 10:10:03;;;;;;;38.73;9.60;;;;;;;;;;1792532;80;21012;-72
2022/06/10 10:12:33;;;;;;;8.25;6.62;;;;;;;;;;1785851;80;21073;-72
2022/06/10 10:15:10;;;;;;;27.37;9.23;;;;;;;;;;1772507;80;21089;-70
2022/06/10 10:17:50;;;;;;;9.53;7.00;;;;;;;;;;1786419;80;21098;-68
2022/06/10 10:20:31;;;;;;;17.25;7.62;;;;;;;;;;1787212;80;21016;-67
2022/06/10 10:23:10;;;;;;;12.28;7.10;;;;;;;;;;1738119;80;21044;-68
2022/06/10 10:25:37;;;;;;;9.85;6.80;;;;;;;;;;1791213;80;21069;-75
2022/06/10 10:28:05;;;;;;;9.78;6.92;;;;;;;;;;1780883;79;21044;-75
2022/06/10 10:30:38;;;;;;;8.98;6.50;;;;;;;;;;1706714;82;21027;-74
2022/06/10 10:33:05;;;;;;;9.80;6.62;;;;;;;;;;1724577;82;21051;-76
2022/06/10 10:35:35;;;;;;;7.67;6.83;;;;;;;;;;1709451;83;21052;-76
2022/06/10 10:38:02;;;;;;;8.13;6.70;;;;;;;;;;1722148;83;21109;-79
2022/06/10 10:40:32;;;;;;;8.98;6.33;;;;;;;;;;1723587;82;21635;-74
2022/06/10 10:42:58;;;;;;;8.88;6.45;;;;;;;;;;1713360;83;21093;-77
2022/06/10 10:45:29;;;;;;;10.13;8.30;;;;;;;;;;1749578;81;21021;-72
2022/06/10 10:47:58;;;;;;;12.65;7.95;;;;;;;;;;1728567;81;21020;-74
2022/06/10 10:50:31;;;;;;;35.50;9.60;;;;;;;;;;1732040;81;21049;-80
2022/06/10 10:52:57;;;;;;;8.08;7.22;;;;;;;;;;1737362;82;21045;-80
2022/06/10 10:55:28;;;;;;;8.73;6.60;;;;;;;;;;1759320;81;21053;-83
2022/06/10 10:58:05;;;;;;;9.53;6.83;;;;;;;;;;1722493;83;21537;-82
2022/06/10 11:00:36;;;;;;;13.78;7.08;;;;;;;;;;1712420;83;21595;-79
2022/06/10 11:03:02;;;;;;;11.03;7.53;;;;;;;;;;1731415;80;21062;-74
2022/06/10 11:05:32;;;;;;;10.08;7.87;;;;;;;;;;1706301;84;21005;-76
2022/06/10 11:08:11;;;;;;;8.48;7.30;;;;;;;;;;1710764;84;21030;-77
2022/06/10 11:10:58;;;;;;;9.63;6.78;;;;;;;;;;1753012;80;21029;-75
2022/06/10 11:13:25;;;;;;;19.45;7.97;;;;;;;;;;1750750;82;21587;-72
2022/06/10 11:15:53;;;;;;;16.55;7.87;;;;;;;;;;1746902;80;21080;-72
2022/06/10 11:18:19;;;;;;;8.90;7.10;;;;;;;;;;1742353;81;21532;-74
2022/06/10 11:20:45;;;;;;;9.00;8.05;;;;;;;;;;1731474;81;21105;-71
2022/06/10 11:23:13;;;;;;;8.85;6.17;;;;;;;;;;1747019;82;21535;-72
2022/06/10 11:25:40;;;;;;;9.58;6.95;;;;;;;;;;1745800;80;21005;-72
2022/06/10 11:28:07;;;;;;;11.40;7.87;;;;;;;;;;1753074;80;21524;-72
2022/06/10 11:30:38;;;;;;;10.08;6.92;;;;;;;;;;1745940;82;21088;-71
2022/06/10 11:33:05;;;;;;;9.38;7.85;;;;;;;;;;1750609;81;21013;-73
2022/06/10 11:35:35;;;;;;;11.55;7.85;;;;;;;;;;1747926;82;21040;-72
2022/06/10 11:38:06;;;;;;;9.43;6.75;;;;;;;;;;1748084;82;21547;-73
2022/06/10 11:40:40;;;;;;;12.00;8.00;;;;;;;;;;1747079;80;21437;-70
2022/06/10 11:43:09;;;;;;;12.73;8.23;;;;;;;;;;1747920;82;21084;-71
2022/06/10 11:45:39;;;;;;;16.32;8.75;;;;;;;;;;1747443;82;21111;-72
2022/06/10 11:48:16;;;;;;;10.88;6.75;;;;;;;;;;1747960;82;21064;-72
2022/06/10 11:50:44;;;;;;;9.98;7.10;;;;;;;;;;1747153;82;21087;-71
2022/06/10 11:53:12;;;;;;;9.75;7.20;;;;;;;;;;1748609;80;21033;-71
2022/06/10 11:55:39;;;;;;;20.20;9.48;;;;;;;;;;1741410;81;21045;-68
2022/06/10 12:00:58;;;;;;;9.57;7.63;;;;;;;;;;1739052;82;21580;-72
2022/06/10 12:03:29;;;;;;;24.30;9.10;;;;;;;;;;1751745;80;21009;-72
2022/06/10 12:06:02;;;;;;;11.70;8.70;;;;;;;;;;1753611;82;21052;-69
2022/06/10 12:08:42;;;;;;;10.15;8.03;;;;;;;;;;1754869;81;21516;-69
2022/06/10 12:11:25;;;;;;;12.85;7.80;;;;;;;;;;1754129;80;21044;-72
2022/06/10 12:14:11;;;;;;;14.20;8.77;;;;;;;;;;1756086;82;21052;-76
2022/06/10 12:16:38;;;;;;;10.93;8.00;;;;;;;;;;1748975;82;21437;-78
2022/06/10 12:19:06;;;;;;;11.18;8.05;;;;;;;;;;1754880;80;21467;-74
2022/06/10 12:21:32;;;;;;;10.45;8.15;;;;;;;;;;1775253;80;21016;-75
2022/06/10 12:23:59;;;;;;;10.78;8.63;;;;;;;;;;1754116;81;21048;-74
2022/06/10 12:26:32;;;;;;;13.62;8.25;;;;;;;;;;1756215;82;21188;-75
2022/06/10 12:29:03;;;;;;;13.22;8.18;;;;;;;;;;1726877;82;21619;-78
2022/06/10 12:31:49;;;;;;;11.03;7.90;;;;;;;;;;1717469;83;21107;-74
2022/06/10 12:34:26;;;;;;;13.25;8.08;;;;;;;;;;1724635;82;21059;-74
2022/06/10 12:36:54;;;;;;;12.73;8.40;;;;;;;;;;1712552;82;21382;-72
2022/06/10 12:39:32;;;;;;;12.93;8.60;;;;;;;;;;1719687;83;21177;-74
2022/06/10 12:42:05;;;;;;;13.95;8.35;;;;;;;;;;1755923;80;20985;-75
2022/06/10 12:44:35;;;;;;;13.98;8.93;;;;;;;;;;1753336;80;21035;-77
2022/06/10 12:47:02;;;;;;;13.70;8.88;;;;;;;;;;1752387;81;21576;-78
2022/06/10 12:49:30;;;;;;;15.50;9.95;;;;;;;;;;1755121;81;21052;-72
2022/06/10 12:52:07;;;;;;;15.08;8.48;;;;;;;;;;1732606;82;21536;-73
2022/06/10 12:54:35;;;;;;;12.28;8.75;;;;;;;;;;1754076;82;21575;-73
2022/06/10 12:57:20;;;;;;;11.78;9.13;;;;;;;;;;1755783;82;21024;-72
2022/06/10 12:59:46;;;;;;;14.18;9.60;;;;;;;;;;1754827;81;21508;-73
2022/06/10 13:02:33;;;;;;;14.33;9.45;;;;;;;;;;1755589;81;21060;-73
2022/06/10 13:05:01;;;;;;;15.93;10.58;;;;;;;;;;1725870;82;21092;-72
2022/06/10 13:07:30;;;;;;;14.03;9.63;;;;;;;;;;1721994;83;21055;-73
2022/06/10 13:09:58;;;;;;;16.50;10.28;;;;;;;;;;1718514;82;20985;-72
2022/06/10 13:12:38;;;;;;;10.53;8.65;;;;;;;;;;1715558;83;21124;-74
2022/06/10 13:15:15;;;;;;;16.97;9.10;;;;;;;;;;1721562;83;21041;-72
2022/06/10 13:17:57;;;;;;;14.20;9.30;;;;;;;;;;1717407;83;21020;-74
2022/06/10 13:20:23;;;;;;;11.22;8.55;;;;;;;;;;1716978;82;21040;-74
2022/06/10 13:22:51;;;;;;;14.07;10.00;;;;;;;;;;1721333;83;21075;-76
2022/06/10 13:25:20;;;;;;;13.22;9.05;;;;;;;;;;1713533;82;21020;-79
2022/06/10 13:27:46;;;;;;;11.08;8.70;;;;;;;;;;1719443;83;21028;-77
2022/06/10 13:30:14;;;;;;;10.10;8.33;;;;;;;;;;1718251;83;20976;-77
2022/06/10 13:32:44;;;;;;;13.35;9.20;;;;;;;;;;1716566;83;21056;-77
2022/06/10 13:35:12;;;;;;;12.65;9.00;;;;;;;;;;1722763;82;21032;-76
2022/06/10 13:37:38;;;;;;;14.80;10.82;;;;;;;;;;1715272;82;21551;-77
2022/06/10 13:40:06;;;;;;;16.07;9.68;;;;;;;;;;1720940;83;20985;-74
2022/06/10 13:42:33;;;;;;;11.93;9.25;;;;;;;;;;1721193;83;21039;-72
2022/06/10 13:45:04;;;;;;;12.15;9.98;;;;;;;;;;1687745;85;21088;-73
2022/06/10 13:47:31;;;;;;;15.15;10.15;;;;;;;;;;1695114;83;21040;-72
2022/06/10 13:52:41;;;;;;;12.33;9.95;;;;;;;;;;1717835;83;20988;-71
2022/06/10 13:55:26;;;;;;;18.00;9.93;;;;;;;;;;1719992;82;20973;-71
2022/06/10 13:57:56;;;;;;;12.90;10.05;;;;;;;;;;1721674;83;21031;-69
2022/06/10 14:00:23;;;;;;;11.10;9.13;;;;;;;;;;1721987;83;21040;-71
2022/06/10 14:02:49;;;;;;;12.00;8.83;;;;;;;;;;1690180;83;21623;-68
2022/06/10 14:05:18;;;;;;;12.63;9.08;;;;;;;;;;1704230;82;21130;-67
2022/06/10 14:07:45;;;;;;;11.83;9.30;;;;;;;;;;1705302;84;21127;-70
2022/06/10 14:10:26;;;;;;;12.15;9.88;;;;;;;;;;1704962;84;21055;-68
2022/06/10 14:12:57;;;;;;;14.73;9.63;;;;;;;;;;1703906;84;21056;-70
2022/06/10 14:15:26;;;;;;;14.93;9.28;;;;;;;;;;1705005;82;21079;-71
2022/06/10 14:17:56;;;;;;;12.65;9.38;;;;;;;;;;1701876;84;21037;-73
2022/06/10 14:20:23;;;;;;;12.05;9.35;;;;;;;;;;1703133;84;21543;-72
2022/06/10 14:22:49;;;;;;;15.88;10.68;;;;;;;;;;1704279;84;21071;-72
2022/06/10 14:25:17;;;;;;;12.00;8.93;;;;;;;;;;1675693;84;21004;-72
2022/06/10 14:27:50;;;;;;;14.93;9.30;;;;;;;;;;1703940;84;21004;-71
2022/06/10 14:30:22;;;;;;;12.07;9.50;;;;;;;;;;1674931;84;21112;-71
2022/06/10 14:32:50;;;;;;;13.83;8.93;;;;;;;;;;1715163;82;21103;-72
2022/06/10 14:35:27;;;;;;;10.28;8.43;;;;;;;;;;1727083;82;21003;-71
2022/06/10 14:38:00;;;;;;;12.05;9.20;;;;;;;;;;1726737;83;20988;-68
2022/06/10 14:40:26;;;;;;;;;;;;;;;;;;1727447;82;21516;-74
2022/06/10 14:43:02;;;;;;;11.85;8.98;;;;;;;;;;1726857;82;20095;-77
2022/06/10 14:45:34;;;;;;;14.20;8.80;;;;;;;;;;1706102;82;21067;-78
2022/06/10 14:48:04;;;;;;;14.75;9.23;;;;;;;;;;1683523;84;21143;-75
2022/06/10 14:50:32;;;;;;;10.05;8.30;;;;;;;;;;1687841;83;21072;-74
2022/06/10 14:52:58;;;;;;;12.82;8.85;;;;;;;;;;1699919;82;21519;-75
2022/06/10 14:55:27;;;;;;;11.75;8.58;;;;;;;;;;1738095;82;21215;-75
2022/06/10 14:57:56;;;;;;;11.40;8.60;;;;;;;;;;1733264;82;21020;-74
2022/06/10 15:00:23;;;;;;;14.25;8.58;;;;;;;;;;1705289;84;21095;-75
2022/06/10 15:02:50;;;;;;;16.30;9.53;;;;;;;;;;1674595;83;21132;-71
2022/06/10 15:08:01;;;;;;;13.70;9.08;;;;;;;;;;1706524;82;20994;-74
2022/06/10 15:10:27;;;;;;;13.15;8.30;;;;;;;;;;1741535;82;21087;-73
2022/06/10 15:12:53;;;;;;;12.20;8.30;;;;;;;;;;1725056;82;21057;-72